Time;durP1;ratioP1;P1;durP2;ratioP2;P2;SDS_P1;SDS_P2;PMS_P1;PMS_P2;Temp;Humidity;BMP_temperature;BMP_pressure;BME280_temperature;BME280_humidity;BME280_pressure;Samples;Min_cycle;Max_cycle;Signal;HPM_P1;HPM_P2
2024/02/15 00:01:55;;;;;;;12.48;4.75;;;12.10;99.90;;;;;;5090671;28;20024;-89
2024/02/15 00:04:20;;;;;;;10.13;5.05;;;12.70;99.90;;;;;;5090151;28;20455;-88
2024/02/15 00:06:45;;;;;;;15.65;6.15;;;12.10;99.90;;;;;;5089188;28;20040;-88
2024/02/15 00:09:11;;;;;;;8.80;4.80;;;12.10;99.90;;;;;;5091854;28;20049;-89
2024/02/15 00:11:49;;;;;;;12.18;5.97;;;12.00;99.90;;;;;;5094285;28;20040;-88
2024/02/15 00:14:15;;;;;;;12.07;5.82;;;12.00;99.90;;;;;;5097004;28;20047;-89
2024/02/15 00:16:40;;;;;;;11.35;4.47;;;12.00;99.90;;;;;;5097785;28;20051;-88
2024/02/15 00:19:09;;;;;;;16.00;5.00;;;12.00;99.90;;;;;;5094027;28;20034;-88
2024/02/15 00:21:36;;;;;;;11.93;5.15;;;12.10;99.90;;;;;;5090878;28;20066;-89
2024/02/15 00:24:01;;;;;;;8.25;4.10;;;12.00;99.90;;;;;;5090726;28;20023;-90
2024/02/15 00:26:27;;;;;;;11.38;6.18;;;12.00;99.90;;;;;;5092094;28;20028;-91
2024/02/15 00:28:52;;;;;;;10.57;6.53;;;12.10;99.90;;;;;;5090992;28;20040;-90
2024/02/15 00:31:18;;;;;;;10.82;5.95;;;12.70;99.90;;;;;;5089888;28;20035;-89
2024/02/15 00:33:44;;;;;;;15.63;6.20;;;12.10;99.90;;;;;;5090768;28;20032;-89
2024/02/15 00:36:10;;;;;;;14.48;6.45;;;12.40;99.90;;;;;;5091025;28;20055;-89
2024/02/15 00:38:36;;;;;;;11.95;6.20;;;12.10;99.90;;;;;;5091663;28;20483;-90
2024/02/15 00:41:02;;;;;;;14.57;6.93;;;12.20;99.90;;;;;;5091511;28;20031;-89
2024/02/15 00:43:28;;;;;;;14.45;6.55;;;12.10;99.90;;;;;;5092039;28;20031;-90
2024/02/15 00:45:53;;;;;;;17.90;6.05;;;12.00;99.90;;;;;;5089596;28;20216;-88
2024/02/15 00:48:19;;;;;;;13.23;7.07;;;12.10;99.90;;;;;;5089444;28;20097;-89
2024/02/15 00:50:45;;;;;;;14.88;7.32;;;12.30;99.90;;;;;;5089545;28;20051;-90
2024/02/15 00:53:10;;;;;;;14.68;7.32;;;12.20;99.90;;;;;;5091224;28;20028;-89
2024/02/15 00:55:36;;;;;;;18.45;8.18;;;12.10;99.90;;;;;;5090582;28;20036;-87
2024/02/15 00:58:02;;;;;;;15.68;8.57;;;12.60;99.90;;;;;;5091602;28;20032;-89
2024/02/15 01:00:28;;;;;;;14.30;8.30;;;12.20;99.90;;;;;;5091916;28;20430;-89
2024/02/15 01:02:57;;;;;;;14.65;8.73;;;12.50;99.90;;;;;;5090803;28;20031;-89
2024/02/15 01:05:24;;;;;;;17.67;8.07;;;12.00;99.90;;;;;;5091524;28;20483;-89
2024/02/15 01:07:49;;;;;;;12.55;8.30;;;12.60;99.90;;;;;;5092059;28;20434;-89
2024/02/15 01:10:27;;;;;;;12.93;8.43;;;12.20;99.90;;;;;;5090528;28;20100;-89
2024/02/15 01:12:53;;;;;;;18.35;8.30;;;12.20;99.90;;;;;;5090718;28;20512;-89
2024/02/15 01:15:20;;;;;;;12.85;8.55;;;12.40;99.90;;;;;;5092315;28;20048;-89
2024/02/15 01:17:46;;;;;;;15.23;9.50;;;12.20;99.90;;;;;;5092048;28;20036;-90
2024/02/15 01:20:12;;;;;;;12.73;9.95;;;12.70;99.90;;;;;;5092231;28;20028;-89
2024/02/15 01:22:46;;;;;;;23.00;10.55;;;12.30;99.90;;;;;;5093121;28;20040;-90
2024/02/15 01:25:12;;;;;;;15.18;10.80;;;12.60;99.90;;;;;;5092429;28;20118;-90
2024/02/15 01:27:51;;;;;;;15.02;10.73;;;12.90;99.90;;;;;;5094356;28;20043;-89
2024/02/15 01:30:16;;;;;;;16.40;10.70;;;12.20;99.90;;;;;;5092630;28;20024;-91
2024/02/15 01:32:42;;;;;;;14.20;10.65;;;12.20;99.90;;;;;;5096766;28;20028;-89
2024/02/15 01:35:08;;;;;;;17.60;10.82;;;12.90;99.90;;;;;;5103030;28;20143;-90
2024/02/15 01:37:47;;;;;;;26.02;11.77;;;12.20;99.90;;;;;;5103817;28;20052;-89
2024/02/15 01:40:13;;;;;;;16.60;10.52;;;12.20;99.90;;;;;;5099646;28;20048;-89
2024/02/15 01:42:39;;;;;;;20.73;11.00;;;12.20;99.90;;;;;;5097372;28;20494;-90
2024/02/15 01:45:05;;;;;;;20.52;11.57;;;12.20;99.90;;;;;;5094607;28;20114;-89
2024/02/15 01:47:31;;;;;;;24.65;11.88;;;12.10;99.90;;;;;;5095456;28;20039;-89
2024/02/15 01:49:57;;;;;;;16.58;11.43;;;12.80;99.90;;;;;;5096049;28;20024;-90
2024/02/15 01:52:23;;;;;;;18.80;11.52;;;12.20;99.90;;;;;;5094274;28;20032;-92
2024/02/15 01:54:52;;;;;;;23.60;11.45;;;12.10;99.90;;;;;;5094278;28;20046;-90
2024/02/15 01:57:37;;;;;;;;;;;;;;;;;;;;;
2024/02/15 02:00:06;;;;;;;17.42;11.10;;;12.50;99.90;;;;;;5074974;28;20032;-90
2024/02/15 02:02:34;;;;;;;14.73;10.80;;;12.10;99.90;;;;;;5075451;28;20031;-93
2024/02/15 02:05:01;;;;;;;22.63;11.73;;;12.50;99.90;;;;;;5079969;28;20024;-91
2024/02/15 02:07:27;;;;;;;18.75;11.25;;;12.10;99.90;;;;;;5096388;28;20344;-92
2024/02/15 02:09:52;;;;;;;18.65;10.80;;;12.10;99.90;;;;;;5096504;28;20107;-92
2024/02/15 02:12:18;;;;;;;18.15;11.02;;;12.30;99.90;;;;;;5094749;28;20085;-92
2024/02/15 02:14:56;;;;;;;19.70;10.30;;;12.10;99.90;;;;;;5093505;28;20063;-92
2024/02/15 02:17:21;;;;;;;20.40;10.85;;;12.00;99.90;;;;;;5103243;28;20036;-91
2024/02/15 02:19:49;;;;;;;17.10;10.68;;;12.50;99.90;;;;;;5094143;28;20103;-90
2024/02/15 02:22:38;;;;;;;19.13;10.07;;;12.30;99.90;;;;;;5095522;28;20032;-92
2024/02/15 02:25:10;;;;;;;16.90;10.05;;;12.00;99.90;;;;;;5095454;28;20028;-92
2024/02/15 02:27:36;;;;;;;20.50;10.05;;;12.00;99.90;;;;;;5094223;28;20471;-89
2024/02/15 02:30:14;;;;;;;19.13;9.73;;;12.00;99.90;;;;;;5077483;28;20028;-90
2024/02/15 02:32:41;;;;;;;15.52;9.98;;;12.00;99.90;;;;;;5074370;28;20033;-89
2024/02/15 02:35:07;;;;;;;14.73;10.38;;;12.00;99.90;;;;;;5073751;28;20021;-88
2024/02/15 02:37:35;;;;;;;16.95;9.98;;;11.90;99.90;;;;;;5077244;28;20111;-90
2024/02/15 02:40:00;;;;;;;16.40;9.45;;;12.00;99.90;;;;;;5093431;28;20035;-89
2024/02/15 02:42:26;;;;;;;21.98;9.93;;;12.10;99.90;;;;;;5093933;28;20024;-88
2024/02/15 02:44:52;;;;;;;17.98;9.35;;;12.00;99.90;;;;;;5093833;28;20340;-88
2024/02/15 02:47:18;;;;;;;18.23;9.60;;;11.90;99.90;;;;;;5092132;28;20391;-89
2024/02/15 02:49:43;;;;;;;16.35;9.38;;;12.00;99.90;;;;;;5094104;28;20020;-88
2024/02/15 02:52:24;;;;;;;25.80;9.07;;;11.90;99.90;;;;;;5093753;28;20031;-88
2024/02/15 02:54:51;;;;;;;14.77;9.05;;;11.90;99.90;;;;;;5092543;28;20031;-89
2024/02/15 02:57:18;;;;;;;13.93;8.55;;;11.90;99.90;;;;;;5094563;28;20048;-89
2024/02/15 02:59:44;;;;;;;15.45;9.13;;;11.90;99.90;;;;;;5093771;28;20150;-88
2024/02/15 03:02:10;;;;;;;11.43;9.00;;;11.90;99.90;;;;;;5091418;28;20087;-88
2024/02/15 03:04:36;;;;;;;18.42;9.45;;;11.90;99.90;;;;;;5093376;28;20020;-88
2024/02/15 03:07:08;;;;;;;15.45;9.32;;;12.00;99.90;;;;;;5093765;28;20066;-89
2024/02/15 03:09:34;;;;;;;13.90;8.30;;;12.40;99.90;;;;;;5092422;28;20032;-89
2024/02/15 03:12:01;;;;;;;16.00;7.78;;;11.90;99.90;;;;;;5093956;28;20024;-88
2024/02/15 03:14:42;;;;;;;16.48;8.30;;;12.40;99.90;;;;;;5093222;28;20054;-91
2024/02/15 03:17:08;;;;;;;17.38;9.02;;;11.90;99.90;;;;;;5093448;28;20172;-89
2024/02/15 03:19:33;;;;;;;14.27;8.32;;;12.80;99.90;;;;;;5093511;28;20055;-89
2024/02/15 03:22:05;;;;;;;18.38;7.40;;;11.90;99.90;;;;;;5091282;28;20059;-89
2024/02/15 03:24:31;;;;;;;29.10;8.82;;;12.80;99.90;;;;;;5092882;28;20118;-89
2024/02/15 03:26:59;;;;;;;15.35;8.30;;;12.40;99.90;;;;;;5092462;28;20103;-89
2024/02/15 03:29:25;;;;;;;21.45;7.85;;;11.90;99.90;;;;;;5092378;28;20028;-88
2024/02/15 03:31:53;;;;;;;16.15;8.10;;;11.90;99.90;;;;;;5091970;28;20107;-89
2024/02/15 03:34:27;;;;;;;16.63;7.70;;;11.90;99.90;;;;;;5093107;28;20395;-89
2024/02/15 03:36:54;;;;;;;11.57;7.57;;;12.50;99.90;;;;;;5092462;28;20032;-90
2024/02/15 03:39:28;;;;;;;18.27;7.43;;;12.00;99.90;;;;;;5093626;28;20043;-89
2024/02/15 03:41:56;;;;;;;16.10;6.88;;;11.80;99.90;;;;;;5091384;28;20077;-89
2024/02/15 03:44:31;;;;;;;17.42;7.55;;;11.90;99.90;;;;;;5091948;28;20024;-89
2024/02/15 03:46:57;;;;;;;15.15;8.25;;;12.60;99.90;;;;;;5092407;28;20123;-89
2024/02/15 03:49:23;;;;;;;16.02;7.85;;;11.90;99.90;;;;;;5093392;28;20056;-89
2024/02/15 03:51:51;;;;;;;17.00;7.20;;;12.10;99.90;;;;;;5092190;28;20031;-88
2024/02/15 03:54:17;;;;;;;15.90;7.22;;;12.50;99.90;;;;;;5092660;28;20501;-90
2024/02/15 03:56:52;;;;;;;20.92;7.75;;;12.10;99.90;;;;;;5092824;28;20067;-88
2024/02/15 03:59:26;;;;;;;13.80;6.97;;;12.00;99.90;;;;;;5092594;28;20024;-88
2024/02/15 04:01:56;;;;;;;16.25;7.38;;;12.00;99.90;;;;;;5093323;28;20028;-90
2024/02/15 04:04:21;;;;;;;24.83;8.83;;;12.00;99.90;;;;;;5092952;28;20039;-89
2024/02/15 04:06:48;;;;;;;19.52;8.02;;;12.00;99.90;;;;;;5095239;28;20031;-88
2024/02/15 04:09:26;;;;;;;21.17;8.57;;;12.00;99.90;;;;;;5092933;28;20104;-88
2024/02/15 04:11:52;;;;;;;21.67;8.65;;;12.00;99.90;;;;;;5089882;28;20482;-86
2024/02/15 04:14:18;;;;;;;19.35;8.38;;;12.80;99.90;;;;;;5089722;28;20027;-89
2024/02/15 04:16:52;;;;;;;22.55;9.05;;;12.50;99.90;;;;;;5092929;28;20040;-89
2024/02/15 04:19:21;;;;;;;16.92;8.73;;;12.00;99.90;;;;;;5091861;28;20470;-89
2024/02/15 04:21:47;;;;;;;20.88;8.82;;;12.40;99.90;;;;;;5092982;28;20028;-89
2024/02/15 04:24:22;;;;;;;20.75;9.63;;;12.00;99.90;;;;;;5092751;28;20085;-89
2024/02/15 04:26:48;;;;;;;22.80;8.82;;;12.60;99.90;;;;;;5090447;28;20027;-89
2024/02/15 04:29:15;;;;;;;15.88;9.27;;;12.00;99.90;;;;;;5072448;28;20032;-89
2024/02/15 04:31:49;;;;;;;13.57;8.32;;;12.00;99.90;;;;;;5074961;28;20029;-90
2024/02/15 04:34:16;;;;;;;16.23;9.38;;;12.00;99.90;;;;;;5091535;28;20024;-90
2024/02/15 04:36:44;;;;;;;21.20;10.10;;;13.40;99.90;;;;;;5097723;28;20028;-89
2024/02/15 04:39:14;;;;;;;20.20;10.10;;;12.00;99.90;;;;;;5094653;28;20135;-89
2024/02/15 04:41:46;;;;;;;19.77;10.02;;;12.00;99.90;;;;;;5093993;28;20464;-89
2024/02/15 04:44:12;;;;;;;16.10;9.88;;;12.00;99.90;;;;;;5092395;28;20028;-89
2024/02/15 04:46:38;;;;;;;25.52;11.88;;;13.00;99.90;;;;;;5095045;28;20020;-88
2024/02/15 04:49:06;;;;;;;19.40;11.27;;;11.90;99.90;;;;;;5097709;28;20020;-89
2024/02/15 04:51:31;;;;;;;16.73;10.18;;;12.00;99.90;;;;;;5101264;28;20510;-89
2024/02/15 04:53:58;;;;;;;21.70;11.38;;;11.90;99.90;;;;;;5103895;28;20028;-89
2024/02/15 04:56:23;;;;;;;15.43;10.27;;;12.00;99.90;;;;;;5096692;28;20048;-89
2024/02/15 04:58:50;;;;;;;19.40;12.20;;;12.00;99.90;;;;;;5099519;28;20515;-90
2024/02/15 05:01:16;;;;;;;22.33;12.57;;;12.40;99.90;;;;;;5098761;28;20020;-89
2024/02/15 05:03:46;;;;;;;16.65;10.50;;;12.00;99.90;;;;;;5093182;28;20090;-90
2024/02/15 05:06:12;;;;;;;21.60;11.45;;;11.90;99.90;;;;;;5092709;28;20024;-89
2024/02/15 05:08:42;;;;;;;21.42;12.63;;;11.90;99.90;;;;;;5090440;28;20038;-88
2024/02/15 05:11:22;;;;;;;24.00;13.57;;;12.00;99.90;;;;;;5095146;28;20518;-90
2024/02/15 05:13:51;;;;;;;21.10;11.70;;;11.90;99.90;;;;;;5095593;28;20562;-89
2024/02/15 05:16:16;;;;;;;22.90;12.85;;;11.90;99.90;;;;;;5095966;28;20028;-89
2024/02/15 05:18:42;;;;;;;28.10;13.70;;;11.90;99.90;;;;;;5094421;28;20040;-89
2024/02/15 05:21:09;;;;;;;19.70;12.95;;;12.20;99.90;;;;;;5095962;28;20047;-89
2024/02/15 05:23:44;;;;;;;21.85;12.30;;;11.90;99.90;;;;;;5094924;28;20085;-89
2024/02/15 05:26:12;;;;;;;27.70;12.30;;;12.50;99.90;;;;;;5094989;28;20379;-90
2024/02/15 05:28:38;;;;;;;27.70;13.32;;;11.90;99.90;;;;;;5096364;28;20024;-89
2024/02/15 05:31:20;;;;;;;24.38;12.63;;;11.90;99.90;;;;;;5091313;28;20050;-88
2024/02/15 05:33:49;;;;;;;21.35;13.43;;;12.00;99.90;;;;;;5097460;28;20016;-89
2024/02/15 05:36:22;;;;;;;22.90;12.93;;;12.70;99.90;;;;;;5094708;28;20032;-88
2024/02/15 05:38:52;;;;;;;21.80;12.85;;;12.40;99.90;;;;;;5094797;28;20072;-89
2024/02/15 05:41:19;;;;;;;22.70;12.75;;;12.50;99.90;;;;;;5095220;28;20031;-89
2024/02/15 05:43:46;;;;;;;22.52;12.27;;;11.90;99.90;;;;;;5094748;28;20028;-90
2024/02/15 05:46:12;;;;;;;17.95;11.35;;;12.00;99.90;;;;;;5094461;28;20020;-89
2024/02/15 05:48:39;;;;;;;25.95;12.45;;;11.90;99.90;;;;;;5095293;28;20471;-89
2024/02/15 05:51:06;;;;;;;27.58;13.52;;;11.90;99.90;;;;;;5093360;28;20028;-89
2024/02/15 05:53:35;;;;;;;25.40;12.95;;;11.90;99.90;;;;;;5099009;28;20454;-89
2024/02/15 05:56:06;;;;;;;15.83;12.17;;;12.30;99.90;;;;;;5099105;28;20028;-92
2024/02/15 05:58:32;;;;;;;27.70;13.75;;;11.90;99.90;;;;;;5093540;28;20297;-90
2024/02/15 06:01:02;;;;;;;15.98;11.68;;;11.90;99.90;;;;;;5094461;28;20222;-87
2024/02/15 06:03:28;;;;;;;22.23;13.10;;;12.00;99.90;;;;;;5091379;28;20031;-89
2024/02/15 06:05:58;;;;;;;21.70;13.38;;;12.00;99.90;;;;;;5091401;28;20066;-91
2024/02/15 06:08:27;;;;;;;23.35;13.45;;;12.20;99.90;;;;;;5074420;28;20475;-89
2024/02/15 06:10:53;;;;;;;19.38;12.30;;;12.00;99.90;;;;;;5085394;28;20119;-89
2024/02/15 06:13:28;;;;;;;22.92;12.85;;;11.90;99.90;;;;;;5111375;28;20195;-91
2024/02/15 06:15:55;;;;;;;23.30;13.52;;;11.90;99.90;;;;;;5093582;28;20031;-88
2024/02/15 06:18:28;;;;;;;19.38;14.52;;;12.50;99.90;;;;;;5094205;28;20089;-88
2024/02/15 06:21:02;;;;;;;24.52;14.77;;;11.90;99.90;;;;;;5093006;28;20043;-90
2024/02/15 06:23:28;;;;;;;15.52;13.23;;;12.20;99.90;;;;;;5094322;28;20024;-89
2024/02/15 06:26:03;;;;;;;15.35;13.13;;;11.90;99.90;;;;;;5094552;28;20032;-89
2024/02/15 06:39:44;;;;;;;18.23;12.27;;;11.90;99.90;;;;;;5093887;28;20229;-89
2024/02/15 06:42:13;;;;;;;16.20;12.55;;;12.00;99.90;;;;;;5094493;28;20109;-89
2024/02/15 06:44:40;;;;;;;20.17;12.90;;;12.00;99.90;;;;;;5093645;28;20036;-89
2024/02/15 06:47:06;;;;;;;14.90;11.80;;;11.90;99.90;;;;;;5096771;28;20028;-89
2024/02/15 06:49:32;;;;;;;16.85;12.32;;;12.00;99.90;;;;;;5112150;28;20024;-91
2024/02/15 06:52:01;;;;;;;13.68;12.23;;;12.60;99.90;;;;;;5102885;28;20471;-89
2024/02/15 06:54:27;;;;;;;13.95;11.40;;;12.00;99.90;;;;;;5093934;28;20070;-89
2024/02/15 06:56:54;;;;;;;18.10;12.35;;;12.00;99.90;;;;;;5095037;28;20039;-91
2024/02/15 06:59:22;;;;;;;13.73;11.23;;;12.50;99.90;;;;;;5085125;28;20024;-90
2024/02/15 07:01:48;;;;;;;16.27;10.18;;;12.50;99.90;;;;;;5092426;28;20051;-87
2024/02/15 07:04:14;;;;;;;13.90;10.35;;;12.10;99.90;;;;;;5095081;28;20028;-90
2024/02/15 07:06:40;;;;;;;12.02;10.35;;;12.00;99.90;;;;;;5093729;28;20020;-90
2024/02/15 07:09:06;;;;;;;14.50;10.68;;;12.00;99.90;;;;;;5094428;28;20028;-89
2024/02/15 07:11:34;;;;;;;11.65;9.80;;;11.90;99.90;;;;;;5093317;28;20031;-91
2024/02/15 07:14:00;;;;;;;15.95;10.20;;;12.00;99.90;;;;;;5095037;28;20062;-90
2024/02/15 07:16:26;;;;;;;14.90;10.98;;;12.00;99.90;;;;;;5094799;28;20016;-88
2024/02/15 07:18:52;;;;;;;19.27;11.13;;;12.50;99.90;;;;;;5095620;28;20062;-89
2024/02/15 07:21:21;;;;;;;15.85;10.68;;;12.30;99.90;;;;;;5084127;28;20020;-88
2024/02/15 07:23:46;;;;;;;15.63;10.98;;;12.00;99.90;;;;;;5089236;28;20046;-88
2024/02/15 07:26:12;;;;;;;15.90;11.18;;;11.90;99.90;;;;;;5083456;28;20024;-89
2024/02/15 07:28:38;;;;;;;14.13;10.77;;;12.00;99.90;;;;;;5078344;28;20035;-87
2024/02/15 07:31:03;;;;;;;15.95;11.18;;;12.70;99.90;;;;;;5092867;28;20024;-89
2024/02/15 07:33:29;;;;;;;18.23;11.23;;;12.40;99.90;;;;;;5092421;28;20102;-88
2024/02/15 07:35:56;;;;;;;17.25;11.35;;;12.00;99.90;;;;;;5095712;28;20073;-88
2024/02/15 07:38:22;;;;;;;22.83;11.18;;;11.60;99.90;;;;;;5092151;28;20044;-88
2024/02/15 07:40:48;;;;;;;15.63;11.02;;;12.00;99.90;;;;;;5083362;28;20047;-87
2024/02/15 07:43:15;;;;;;;16.73;10.85;;;12.00;99.90;;;;;;5082159;28;20043;-89
2024/02/15 07:45:40;;;;;;;14.45;9.70;;;12.00;99.90;;;;;;5072553;28;20017;-88
2024/02/15 07:48:06;;;;;;;17.20;9.77;;;12.00;99.90;;;;;;5073596;28;20028;-89
2024/02/15 07:50:32;;;;;;;19.02;9.75;;;12.00;99.90;;;;;;5078628;28;20122;-89
2024/02/15 07:52:58;;;;;;;16.45;9.90;;;12.00;99.90;;;;;;5091096;28;20077;-87
2024/02/15 07:55:28;;;;;;;18.38;9.77;;;12.00;99.90;;;;;;5082971;28;20070;-88
2024/02/15 07:57:53;;;;;;;13.90;9.27;;;12.10;99.90;;;;;;5074715;28;20044;-86
2024/02/15 08:00:19;;;;;;;13.23;9.70;;;12.00;99.90;;;;;;5086606;28;20035;-86
2024/02/15 08:02:45;;;;;;;11.73;8.68;;;12.00;99.90;;;;;;5082763;28;20032;-88
2024/02/15 08:05:12;;;;;;;13.15;8.48;;;12.00;99.90;;;;;;5092348;28;20049;-87
2024/02/15 08:07:41;;;;;;;12.38;7.95;;;12.10;99.90;;;;;;5100503;28;20035;-87
2024/02/15 08:10:12;;;;;;;16.65;8.85;;;12.70;99.90;;;;;;5101483;28;20054;-86
2024/02/15 08:12:52;;;;;;;12.98;8.35;;;12.10;99.90;;;;;;5102010;28;20085;-86
2024/02/15 08:15:18;;;;;;;14.90;8.73;;;12.60;99.90;;;;;;5100018;28;20024;-87
2024/02/15 08:17:48;;;;;;;11.65;7.63;;;12.00;99.90;;;;;;5102826;28;20024;-90
2024/02/15 08:20:14;;;;;;;10.48;7.10;;;12.00;99.90;;;;;;5096063;28;20077;-88
2024/02/15 08:22:52;;;;;;;8.98;7.05;;;12.10;99.90;;;;;;5096225;28;20106;-87
2024/02/15 08:25:18;;;;;;;11.98;7.32;;;12.90;99.90;;;;;;5096297;28;20020;-88
2024/02/15 08:27:49;;;;;;;9.77;6.72;;;12.40;99.90;;;;;;5091048;28;20034;-88
2024/02/15 08:30:15;;;;;;;10.07;6.55;;;12.10;99.90;;;;;;5089549;28;20024;-84
2024/02/15 08:32:41;;;;;;;11.13;6.75;;;12.10;99.90;;;;;;5092210;28;20137;-88
2024/02/15 08:35:27;;;;;;;12.25;6.35;;;12.10;99.90;;;;;;5092842;28;20036;-86
2024/02/15 08:37:54;;;;;;;12.50;6.38;;;12.10;99.90;;;;;;5102504;28;20052;-92
2024/02/15 08:40:24;;;;;;;13.40;6.03;;;12.10;99.90;;;;;;5093360;28;20081;-90
2024/02/15 08:42:50;;;;;;;12.20;6.15;;;12.10;99.90;;;;;;5093151;28;20077;-87
2024/02/15 08:45:16;;;;;;;16.55;6.60;;;12.10;99.90;;;;;;5097194;28;20039;-90
2024/02/15 08:47:42;;;;;;;14.90;6.07;;;12.80;99.90;;;;;;5076670;28;20035;-90
2024/02/15 08:50:10;;;;;;;10.25;5.95;;;12.10;99.90;;;;;;5078255;28;20059;-90
2024/02/15 08:52:40;;;;;;;13.10;5.93;;;12.10;99.90;;;;;;5089521;28;20472;-90
2024/02/15 08:55:15;;;;;;;13.68;6.55;;;12.10;99.90;;;;;;5077984;28;20436;-90
2024/02/15 08:57:41;;;;;;;10.70;5.18;;;13.00;99.90;;;;;;5076917;28;20038;-91
2024/02/15 09:00:45;;;;;;;13.15;5.35;;;12.10;99.90;;;;;;5077101;28;20021;-89
2024/02/15 09:02:59;;;;;;;10.98;5.72;;;12.10;99.90;;;;;;5074735;28;20451;-90
2024/02/15 09:05:25;;;;;;;10.85;5.63;;;12.10;99.90;;;;;;5085125;28;20020;-88
2024/02/15 09:08:04;;;;;;;15.75;6.25;;;12.70;99.90;;;;;;5096224;28;20024;-91
2024/02/15 09:10:30;;;;;;;18.25;6.05;;;12.20;99.90;;;;;;5087046;28;20024;-90
2024/02/15 09:12:57;;;;;;;10.02;5.13;;;12.40;99.90;;;;;;5097138;28;20073;-90
2024/02/15 09:15:23;;;;;;;10.52;5.68;;;12.10;99.90;;;;;;5096465;28;20024;-93
2024/02/15 09:18:17;;;;;;;10.85;5.90;;;12.20;99.90;;;;;;5096464;28;20386;-92
2024/02/15 09:20:55;;;;;;;14.02;5.82;;;12.20;99.90;;;;;;5112517;28;20390;-89
2024/02/15 09:23:21;;;;;;;10.93;4.90;;;12.20;99.90;;;;;;5113877;28;20471;-87
2024/02/15 09:25:49;;;;;;;14.20;6.07;;;12.10;99.90;;;;;;5106852;28;20073;-88
2024/02/15 09:28:15;;;;;;;15.80;6.13;;;12.30;99.90;;;;;;5106245;28;20121;-89
2024/02/15 09:30:40;;;;;;;9.38;4.68;;;12.20;99.90;;;;;;5113222;28;20027;-88
2024/02/15 09:33:06;;;;;;;11.48;5.47;;;12.30;99.90;;;;;;5109684;28;20020;-89
2024/02/15 09:35:32;;;;;;;8.05;5.18;;;12.80;99.90;;;;;;5102859;28;20032;-86
2024/02/15 09:37:57;;;;;;;13.23;5.10;;;12.30;99.90;;;;;;5103389;28;20040;-87
2024/02/15 09:40:29;;;;;;;8.15;4.93;;;13.00;99.90;;;;;;5101144;28;20452;-86
2024/02/15 09:42:54;;;;;;;10.63;5.32;;;12.70;99.90;;;;;;5107609;28;20031;-89
2024/02/15 09:45:20;;;;;;;14.40;5.43;;;12.30;99.90;;;;;;5097067;28;20032;-89
2024/02/15 09:47:50;;;;;;;14.73;6.57;;;12.40;99.90;;;;;;5087715;28;20028;-89
2024/02/15 09:50:17;;;;;;;15.85;7.03;;;12.40;99.90;;;;;;5091451;28;20020;-88
2024/02/15 09:52:55;;;;;;;14.77;7.75;;;13.10;99.90;;;;;;5097882;28;20032;-91
2024/02/15 09:55:22;;;;;;;16.17;5.57;;;12.40;99.90;;;;;;5092071;28;20020;-89
2024/02/15 09:57:49;;;;;;;11.05;5.43;;;12.50;99.90;;;;;;5094825;28;20035;-89
2024/02/15 10:00:16;;;;;;;10.45;5.63;;;12.70;99.90;;;;;;5094187;28;20055;-90
2024/02/15 10:02:46;;;;;;;11.52;5.35;;;12.50;99.90;;;;;;5094610;28;20024;-91
2024/02/15 10:05:12;;;;;;;9.10;5.60;;;12.50;99.90;;;;;;5091444;28;20023;-87
2024/02/15 10:07:45;;;;;;;7.63;4.95;;;12.50;99.90;;;;;;5093269;28;20032;-91
2024/02/15 10:10:25;;;;;;;15.35;5.30;;;12.50;99.90;;;;;;5088399;28;20082;-91
2024/02/15 10:12:54;;;;;;;9.63;6.13;;;12.60;99.90;;;;;;5076254;28;20031;-94
2024/02/15 10:15:36;;;;;;;9.93;5.65;;;13.10;99.90;;;;;;5074873;28;20025;-92
2024/02/15 10:18:08;;;;;;;17.02;6.50;;;12.60;99.90;;;;;;5085298;28;20040;-91
2024/02/15 10:20:35;;;;;;;14.20;7.90;;;12.70;99.90;;;;;;5095774;28;20024;-89
2024/02/15 10:23:00;;;;;;;10.10;6.10;;;12.80;99.90;;;;;;5095807;28;20090;-92
2024/02/15 10:25:29;;;;;;;13.32;5.68;;;13.00;99.90;;;;;;5109072;28;20024;-89
2024/02/15 10:28:19;;;;;;;10.45;5.60;;;13.20;99.90;;;;;;5094900;28;20024;-90
2024/02/15 10:30:46;;;;;;;9.88;5.20;;;12.70;99.90;;;;;;5099126;28;20038;-91
2024/02/15 10:33:31;;;;;;;13.85;5.15;;;12.90;99.90;;;;;;5101451;28;20057;-88
2024/02/15 10:36:08;;;;;;;15.32;6.10;;;12.80;99.90;;;;;;5095662;28;20048;-88
2024/02/15 10:38:36;;;;;;;14.68;6.28;;;12.80;99.90;;;;;;5093726;28;20376;-89
2024/02/15 10:41:06;;;;;;;14.13;6.38;;;13.30;99.90;;;;;;5086533;28;20483;-90
2024/02/15 10:43:37;;;;;;;12.02;5.95;;;12.80;99.90;;;;;;5072244;28;20029;-90
2024/02/15 10:46:03;;;;;;;12.02;5.93;;;13.30;99.90;;;;;;5093754;28;20055;-88
2024/02/15 10:48:29;;;;;;;8.63;5.60;;;12.90;99.90;;;;;;5093467;28;20510;-88
2024/02/15 10:50:59;;;;;;;14.70;6.43;;;13.20;99.90;;;;;;5092721;28;20139;-90
2024/02/15 10:53:27;;;;;;;11.43;6.60;;;12.90;99.90;;;;;;5078650;28;20035;-89
2024/02/15 10:55:59;;;;;;;9.95;6.00;;;12.90;99.90;;;;;;5094290;28;20040;-88
2024/02/15 10:58:30;;;;;;;11.35;6.53;;;12.90;99.90;;;;;;5094892;28;20032;-88
2024/02/15 11:00:59;;;;;;;15.27;7.07;;;12.90;99.90;;;;;;5098682;28;20035;-91
2024/02/15 11:03:33;;;;;;;9.07;6.72;;;13.00;99.90;;;;;;5096626;28;20080;-89
2024/02/15 11:06:02;;;;;;;13.20;6.82;;;13.00;99.90;;;;;;5098734;28;20039;-90
2024/02/15 11:08:29;;;;;;;17.20;7.72;;;13.50;99.90;;;;;;5090425;28;20110;-90
2024/02/15 11:10:58;;;;;;;13.98;7.63;;;13.00;99.90;;;;;;5073450;28;20028;-89
2024/02/15 11:13:24;;;;;;;7.95;6.13;;;13.20;99.90;;;;;;5073907;28;20052;-89
2024/02/15 11:15:51;;;;;;;11.82;7.03;;;13.40;99.90;;;;;;5085951;28;20074;-89
2024/02/15 11:18:48;;;;;;;10.98;7.60;;;13.80;99.90;;;;;;5086646;28;20041;-91
2024/02/15 11:21:32;;;;;;;13.00;8.23;;;13.20;99.90;;;;;;5075170;28;20028;-89
2024/02/15 11:24:24;;;;;;;14.05;9.10;;;13.30;99.90;;;;;;5087093;28;20024;-90
2024/02/15 11:26:50;;;;;;;14.85;9.25;;;13.30;99.90;;;;;;5094230;28;20020;-88
2024/02/15 11:29:55;;;;;;;17.23;10.02;;;13.40;99.90;;;;;;5104858;28;20027;-89
2024/02/15 11:32:40;;;;;;;17.02;9.82;;;13.40;99.90;;;;;;5112247;28;20467;-85
2024/02/15 11:35:16;;;;;;;13.93;10.18;;;13.40;99.90;;;;;;5091455;28;20092;-85
2024/02/15 11:40:17;;;;;;;17.15;10.75;;;13.50;99.90;;;;;;5079967;28;20032;-86
2024/02/15 11:42:46;;;;;;;17.70;11.07;;;13.50;99.90;;;;;;5099389;28;20028;-85
2024/02/15 11:45:12;;;;;;;12.45;11.20;;;13.50;99.90;;;;;;5103116;28;20107;-84
2024/02/15 11:47:42;;;;;;;16.92;11.13;;;13.80;99.90;;;;;;5095935;28;20361;-84
2024/02/15 11:50:14;;;;;;;13.18;11.23;;;13.50;99.90;;;;;;5098864;28;20557;-84
2024/02/15 11:52:42;;;;;;;17.77;11.80;;;13.60;99.90;;;;;;5098802;28;20375;-85
2024/02/15 11:55:10;;;;;;;14.02;11.75;;;13.80;99.90;;;;;;5097759;28;20376;-84
2024/02/15 11:57:50;;;;;;;12.25;10.02;;;13.70;99.90;;;;;;5091002;28;20583;-87
2024/02/15 12:19:50;;;;;;;7.75;6.53;;;13.90;99.90;;;;;;5086337;28;20031;-85
2024/02/15 12:22:20;;;;;;;10.48;6.43;;;14.00;99.90;;;;;;5071720;28;20029;-84
2024/02/15 12:24:56;;;;;;;6.20;5.60;;;14.00;99.90;;;;;;5074216;28;20031;-85
2024/02/15 12:27:22;;;;;;;10.95;6.32;;;14.00;99.90;;;;;;5091558;28;20103;-85
2024/02/15 12:29:57;;;;;;;7.65;5.03;;;14.00;99.90;;;;;;5072564;28;20025;-85
2024/02/15 12:32:24;;;;;;;5.68;4.63;;;14.20;99.90;;;;;;5070889;28;20036;-84
2024/02/15 12:34:51;;;;;;;8.77;5.45;;;14.60;99.90;;;;;;5071595;28;20036;-85
2024/02/15 12:37:23;;;;;;;10.88;5.40;;;14.10;99.90;;;;;;5074030;28;20089;-84
2024/02/15 12:39:50;;;;;;;7.45;4.63;;;14.20;99.90;;;;;;5072157;28;20127;-84
2024/02/15 12:42:22;;;;;;;5.20;4.35;;;14.20;99.90;;;;;;5087589;28;20120;-84
2024/02/15 12:44:48;;;;;;;12.25;4.50;;;14.10;99.90;;;;;;5091589;28;20141;-84
2024/02/15 12:47:24;;;;;;;8.18;3.30;;;14.30;99.90;;;;;;5090997;28;20103;-84
2024/02/15 12:49:50;;;;;;;9.20;3.42;;;14.30;99.90;;;;;;5091603;28;20103;-84
2024/02/15 12:52:36;;;;;;;6.97;3.78;;;14.40;99.90;;;;;;5090305;28;20021;-86
2024/02/15 12:55:10;;;;;;;5.47;3.63;;;14.40;99.90;;;;;;5092743;28;20111;-86
2024/02/15 12:57:36;;;;;;;6.93;3.33;;;15.00;99.90;;;;;;5088996;28;20487;-86
2024/02/15 13:00:10;;;;;;;6.57;3.80;;;14.50;99.90;;;;;;5086010;28;20021;-85
2024/02/15 13:02:37;;;;;;;9.75;3.38;;;14.40;99.90;;;;;;5090092;28;20477;-87
2024/02/15 13:05:04;;;;;;;5.93;3.72;;;14.70;99.90;;;;;;5092887;28;20107;-88
2024/02/15 13:07:30;;;;;;;7.32;3.55;;;14.50;99.90;;;;;;5094591;28;20467;-91
2024/02/15 13:09:56;;;;;;;7.28;4.78;;;14.70;99.90;;;;;;5090542;28;20046;-93
2024/02/15 13:12:23;;;;;;;8.27;4.18;;;14.60;99.90;;;;;;5090810;28;20024;-92
2024/02/15 13:14:50;;;;;;;12.75;4.43;;;14.60;99.90;;;;;;5097900;28;20027;-90
2024/02/15 13:17:16;;;;;;;7.07;4.57;;;14.80;99.90;;;;;;5104467;28;20016;-92
2024/02/15 13:19:49;;;;;;;6.15;4.35;;;14.70;99.90;;;;;;5091891;28;20051;-93